Time;durP1;ratioP1;P1;durP2;ratioP2;P2;SDS_P1;SDS_P2;PMS_P1;PMS_P2;Temp;Humidity;BMP_temperature;BMP_pressure;BME280_temperature;BME280_humidity;BME280_pressure;Samples;Min_cycle;Max_cycle;Signal;HPM_P1;HPM_P2
2022/09/29 00:01:50;;;;;;;114.00;6.32;;;7.20;99.90;;;;;;5110033;28;20642;-69
2022/09/29 00:04:16;;;;;;;247.82;12.32;;;7.10;99.90;;;;;;5117905;28;20036;-70
2022/09/29 00:06:41;;;;;;;80.85;4.65;;;7.10;99.90;;;;;;5131063;28;20039;-71
2022/09/29 00:09:07;;;;;;;43.72;3.45;;;7.00;99.90;;;;;;5094165;28;20047;-72
2022/09/29 00:11:33;;;;;;;24.70;3.60;;;7.00;99.90;;;;;;5110415;28;20445;-69
2022/09/29 00:13:58;;;;;;;14.07;3.38;;;7.00;99.90;;;;;;5110987;28;20460;-69
2022/09/29 00:16:24;;;;;;;7.15;3.22;;;7.00;99.90;;;;;;5108804;28;20085;-69
2022/09/29 00:18:53;;;;;;;33.38;4.55;;;7.00;99.90;;;;;;5092348;28;20039;-70
2022/09/29 00:21:19;;;;;;;10.90;3.45;;;7.10;99.90;;;;;;5109751;28;20047;-69
2022/09/29 00:23:45;;;;;;;9.65;3.67;;;7.20;99.90;;;;;;5110348;28;20047;-70
2022/09/29 00:26:22;;;;;;;5.70;2.92;;;7.20;99.90;;;;;;5118192;28;20043;-72
2022/09/29 00:28:56;;;;;;;5.65;2.83;;;7.10;99.90;;;;;;5113106;28;20048;-69
2022/09/29 00:31:24;;;;;;;11.93;3.70;;;7.20;99.90;;;;;;5109035;28;20047;-70
2022/09/29 00:33:50;;;;;;;9.18;3.15;;;7.20;99.90;;;;;;5111374;28;20396;-69
2022/09/29 00:36:18;;;;;;;11.00;2.97;;;7.20;99.90;;;;;;5113771;28;20051;-70
2022/09/29 00:38:46;;;;;;;5.32;2.90;;;7.20;99.90;;;;;;5114515;28;20092;-70
2022/09/29 00:41:18;;;;;;;5.28;2.92;;;7.20;99.90;;;;;;5113922;28;20055;-72
2022/09/29 00:44:00;;;;;;;8.45;3.15;;;7.10;99.90;;;;;;5114496;28;20051;-70
2022/09/29 00:46:44;;;;;;;15.07;3.45;;;7.10;99.90;;;;;;5112631;28;20044;-70
2022/09/29 00:49:25;;;;;;;31.33;3.85;;;7.10;99.90;;;;;;5113534;28;20480;-72
2022/09/29 00:51:57;;;;;;;50.33;5.20;;;7.10;99.90;;;;;;5114665;28;20052;-71
2022/09/29 00:54:27;;;;;;;14.00;4.35;;;7.10;99.90;;;;;;5113751;28;20423;-70
2022/09/29 00:56:55;;;;;;;6.68;3.58;;;7.10;99.90;;;;;;5114774;27;20040;-70
2022/09/29 00:59:30;;;;;;;10.80;3.25;;;7.00;99.90;;;;;;5133569;27;20039;-71
2022/09/29 01:01:56;;;;;;;8.45;2.75;;;7.10;99.90;;;;;;5133843;27;20119;-70
2022/09/29 01:04:22;;;;;;;6.50;3.17;;;7.10;99.90;;;;;;5133286;27;20043;-72
2022/09/29 01:06:53;;;;;;;;;;;7.10;99.90;;;;;;5135183;27;20038;-70
2022/09/29 01:09:36;;;;;;;35.58;4.47;;;7.10;99.90;;;;;;5128658;27;19982;-69
2022/09/29 01:12:03;;;;;;;60.33;4.20;;;7.00;99.90;;;;;;5112856;28;20438;-70
2022/09/29 01:14:30;;;;;;;6.57;3.33;;;7.00;99.90;;;;;;5113163;28;20112;-70
2022/09/29 01:16:56;;;;;;;8.35;3.40;;;7.00;99.90;;;;;;5112407;28;20504;-71
2022/09/29 01:20:01;;;;;;;8.38;3.45;;;7.00;99.90;;;;;;5112100;27;20039;-71
2022/09/29 01:22:45;;;;;;;9.80;3.13;;;7.00;99.90;;;;;;5131445;27;20139;-69
2022/09/29 01:25:17;;;;;;;15.63;4.35;;;7.00;99.90;;;;;;5134465;27;20047;-71
2022/09/29 01:28:06;;;;;;;34.63;4.28;;;7.00;99.90;;;;;;5134012;27;20043;-69
2022/09/29 01:30:47;;;;;;;39.47;5.35;;;6.90;99.90;;;;;;5115337;27;20122;-69
2022/09/29 01:33:22;;;;;;;43.13;4.68;;;6.80;99.90;;;;;;5130988;27;20422;-72
2022/09/29 01:36:12;;;;;;;9.82;3.85;;;6.80;99.90;;;;;;5113117;28;20511;-70
2022/09/29 01:39:02;;;;;;;15.05;4.03;;;6.80;99.90;;;;;;5132071;27;20131;-71
2022/09/29 01:41:50;;;;;;;90.47;7.90;;;6.70;99.90;;;;;;5114410;27;20047;-70
2022/09/29 01:44:30;;;;;;;36.45;4.97;;;6.70;99.90;;;;;;5133787;27;20039;-72
2022/09/29 01:47:02;;;;;;;91.53;8.68;;;6.70;99.90;;;;;;5124744;27;20042;-70
2022/09/29 01:49:31;;;;;;;102.18;7.57;;;6.70;99.90;;;;;;5111750;28;20052;-69
2022/09/29 01:52:04;;;;;;;42.58;5.45;;;6.60;99.90;;;;;;5123353;27;20065;-70
2022/09/29 01:54:46;;;;;;;23.20;5.30;;;6.60;99.90;;;;;;5115398;27;20036;-70
2022/09/29 01:57:23;;;;;;;48.95;6.75;;;6.60;99.90;;;;;;5133545;27;20058;-69
2022/09/29 01:59:56;;;;;;;119.63;7.18;;;6.50;99.90;;;;;;5109669;27;20501;-69
2022/09/29 02:02:35;;;;;;;64.65;5.13;;;6.60;99.90;;;;;;5123580;27;20042;-70
2022/09/29 02:05:06;;;;;;;60.92;5.88;;;6.60;99.90;;;;;;5111921;28;20485;-71
2022/09/29 02:07:36;;;;;;;88.18;6.88;;;6.60;99.90;;;;;;5112665;27;20114;-70
2022/09/29 02:10:09;;;;;;;33.97;5.65;;;6.60;99.90;;;;;;5112999;28;20040;-70
2022/09/29 02:12:39;;;;;;;35.50;5.35;;;6.60;99.90;;;;;;5112085;28;20040;-69
2022/09/29 02:15:08;;;;;;;56.88;5.13;;;6.60;99.90;;;;;;5112726;28;20043;-70
2022/09/29 02:17:37;;;;;;;28.73;3.30;;;6.50;99.90;;;;;;5110880;28;20046;-70
2022/09/29 02:20:04;;;;;;;19.77;3.38;;;6.50;99.90;;;;;;5123815;27;20035;-70
2022/09/29 02:22:30;;;;;;;18.75;3.13;;;6.50;99.90;;;;;;5132643;27;20476;-70
2022/09/29 02:24:58;;;;;;;22.15;4.10;;;6.40;99.90;;;;;;5133078;27;20384;-69
2022/09/29 02:27:26;;;;;;;31.75;4.97;;;6.40;99.90;;;;;;5129189;27;20047;-72
2022/09/29 02:29:52;;;;;;;38.17;4.68;;;6.40;99.90;;;;;;5112161;28;20599;-70
2022/09/29 02:32:18;;;;;;;35.63;5.03;;;6.40;99.90;;;;;;5111390;28;20396;-69
2022/09/29 02:34:46;;;;;;;;;;;6.40;99.90;;;;;;5111318;28;20128;-71
2022/09/29 02:37:37;;;;;;;42.45;6.75;;;6.40;99.90;;;;;;5112381;28;19922;-70
2022/09/29 02:40:18;;;;;;;32.63;3.55;;;6.40;99.90;;;;;;5112402;28;20075;-69
2022/09/29 02:42:53;;;;;;;59.92;4.57;;;6.40;99.90;;;;;;5093218;28;20039;-69
2022/09/29 02:45:21;;;;;;;43.25;5.22;;;6.40;99.90;;;;;;5112082;28;20048;-69
2022/09/29 02:47:54;;;;;;;30.60;4.15;;;6.40;99.90;;;;;;5124100;27;20046;-69
2022/09/29 02:50:46;;;;;;;55.17;5.07;;;6.30;99.90;;;;;;5125295;27;20114;-70
2022/09/29 02:53:23;;;;;;;31.35;4.70;;;6.30;99.90;;;;;;5108051;27;20498;-71
2022/09/29 02:56:05;;;;;;;55.00;5.80;;;6.30;99.90;;;;;;5131288;27;20074;-69
2022/09/29 02:58:56;;;;;;;72.85;6.47;;;6.30;99.90;;;;;;5131710;27;20043;-69
2022/09/29 03:01:22;;;;;;;71.47;5.85;;;6.30;99.90;;;;;;5131133;27;20045;-72
2022/09/29 03:03:48;;;;;;;33.38;4.88;;;6.30;99.90;;;;;;5131568;27;20043;-70
2022/09/29 03:06:17;;;;;;;29.15;4.70;;;6.40;99.90;;;;;;5113765;27;20123;-71
2022/09/29 03:08:42;;;;;;;39.67;3.97;;;6.30;99.90;;;;;;5104070;27;20053;-71
2022/09/29 03:11:08;;;;;;;33.83;3.95;;;6.30;99.90;;;;;;5132290;27;20047;-69
2022/09/29 03:13:34;;;;;;;63.45;6.13;;;6.40;99.90;;;;;;5131379;27;20074;-71
2022/09/29 03:16:00;;;;;;;56.40;5.40;;;6.30;99.90;;;;;;5130888;27;20042;-71
2022/09/29 03:18:26;;;;;;;49.55;5.15;;;6.30;99.90;;;;;;5131199;27;20118;-72
2022/09/29 03:20:55;;;;;;;;;;;6.30;99.90;;;;;;5131960;27;20043;-69
2022/09/29 03:23:20;;;;;;;97.07;7.72;;;6.30;99.90;;;;;;5132181;27;19938;-69
2022/09/29 03:25:46;;;;;;;65.70;6.10;;;6.30;99.90;;;;;;5113814;27;20485;-69
2022/09/29 03:28:12;;;;;;;31.58;5.10;;;6.30;99.90;;;;;;5111173;28;20389;-70
2022/09/29 03:30:38;;;;;;;71.18;7.07;;;6.30;99.90;;;;;;5110584;28;20564;-69
2022/09/29 03:33:04;;;;;;;65.00;7.93;;;6.30;99.90;;;;;;5110134;28;20058;-70
2022/09/29 03:35:30;;;;;;;112.78;7.75;;;6.20;99.90;;;;;;5100612;28;20373;-70
2022/09/29 03:37:59;;;;;;;68.00;7.18;;;6.20;99.90;;;;;;5111262;28;20043;-71
2022/09/29 03:40:26;;;;;;;78.80;8.00;;;6.20;99.90;;;;;;5124827;27;20039;-72
2022/09/29 03:42:52;;;;;;;46.88;7.32;;;6.20;99.90;;;;;;5110009;27;20046;-70
2022/09/29 03:45:18;;;;;;;129.50;8.48;;;6.30;99.90;;;;;;5113302;27;20047;-70
2022/09/29 03:47:43;;;;;;;65.72;6.82;;;6.20;99.90;;;;;;5111515;27;20126;-71
2022/09/29 03:50:10;;;;;;;33.35;7.07;;;6.20;99.90;;;;;;5130704;27;20463;-69
2022/09/29 03:52:35;;;;;;;42.45;5.70;;;6.30;99.90;;;;;;5110740;27;20050;-69
2022/09/29 03:55:01;;;;;;;102.97;7.40;;;6.20;99.90;;;;;;5122548;27;20035;-69
2022/09/29 03:57:27;;;;;;;62.05;6.90;;;6.20;99.90;;;;;;5130012;28;20047;-71
2022/09/29 03:59:52;;;;;;;50.08;6.10;;;6.40;99.90;;;;;;5112159;28;20380;-69
2022/09/29 04:02:19;;;;;;;111.93;8.13;;;6.20;99.90;;;;;;5114992;28;20051;-71
2022/09/29 04:04:45;;;;;;;58.03;7.00;;;6.20;99.90;;;;;;5126098;27;20085;-69
2022/09/29 04:07:11;;;;;;;79.60;9.85;;;6.10;99.90;;;;;;5131524;28;20074;-70
2022/09/29 04:09:37;;;;;;;88.05;7.80;;;6.10;99.90;;;;;;5095022;28;20078;-69
2022/09/29 04:12:03;;;;;;;112.75;6.05;;;6.10;99.90;;;;;;5116381;27;20059;-69
2022/09/29 04:14:28;;;;;;;104.28;7.40;;;6.10;99.90;;;;;;5117312;27;20054;-71
2022/09/29 04:16:54;;;;;;;117.68;7.68;;;6.10;99.90;;;;;;5131073;27;20043;-70
2022/09/29 04:19:20;;;;;;;92.63;6.97;;;6.00;99.90;;;;;;5115540;27;20122;-71
2022/09/29 04:21:45;;;;;;;121.38;7.72;;;6.00;99.90;;;;;;5127368;27;20043;-70
2022/09/29 04:24:11;;;;;;;115.43;7.30;;;6.20;99.90;;;;;;5083714;28;20044;-72
2022/09/29 04:26:38;;;;;;;58.22;5.82;;;5.90;99.90;;;;;;5115816;27;20035;-69
2022/09/29 04:29:04;;;;;;;61.45;7.22;;;6.00;99.90;;;;;;5125141;27;20396;-70
2022/09/29 04:31:30;;;;;;;;;;;6.00;99.90;;;;;;5113928;28;20096;-72
2022/09/29 04:33:56;;;;;;;99.53;7.68;;;6.00;99.90;;;;;;5111653;27;19919;-70
2022/09/29 04:36:21;;;;;;;79.85;6.22;;;5.90;99.90;;;;;;5099296;28;20086;-71
2022/09/29 04:38:49;;;;;;;50.28;5.22;;;5.90;99.90;;;;;;5115808;27;20039;-71
2022/09/29 04:41:15;;;;;;;40.30;6.03;;;5.90;99.90;;;;;;5122750;27;20872;-70
2022/09/29 04:43:41;;;;;;;57.38;6.38;;;5.80;99.90;;;;;;5099482;27;20085;-70
2022/09/29 04:46:07;;;;;;;35.17;6.38;;;5.80;99.90;;;;;;5115971;27;20127;-68
2022/09/29 04:48:34;;;;;;;27.20;5.72;;;5.80;99.90;;;;;;5120075;27;20048;-70
2022/09/29 04:51:00;;;;;;;13.90;5.22;;;5.70;99.90;;;;;;5113901;28;20126;-68
2022/09/29 04:53:26;;;;;;;;;;;5.70;99.90;;;;;;5116738;27;20039;-69
2022/09/29 04:55:52;;;;;;;41.60;6.50;;;5.70;99.90;;;;;;5113768;28;20675;-70
2022/09/29 04:58:17;;;;;;;37.65;5.53;;;5.70;99.90;;;;;;5096267;27;20050;-67
2022/09/29 05:00:43;;;;;;;46.63;5.75;;;5.70;99.90;;;;;;5133240;27;20051;-68
2022/09/29 05:03:09;;;;;;;32.22;5.68;;;5.60;99.90;;;;;;5114191;27;20047;-68
2022/09/29 05:05:35;;;;;;;61.97;5.50;;;5.60;99.90;;;;;;5115583;27;20039;-70
2022/09/29 05:08:03;;;;;;;37.50;5.63;;;5.60;99.90;;;;;;5121302;27;20059;-67
2022/09/29 05:10:30;;;;;;;56.90;7.32;;;5.50;99.90;;;;;;5113995;28;20507;-68
2022/09/29 05:12:55;;;;;;;30.35;5.60;;;5.50;99.90;;;;;;5113085;28;20671;-68
2022/09/29 05:15:22;;;;;;;140.90;9.15;;;5.50;99.90;;;;;;5113569;28;20113;-69
2022/09/29 05:17:47;;;;;;;93.75;7.80;;;5.50;99.90;;;;;;5113952;27;20595;-67
2022/09/29 05:20:13;;;;;;;36.88;6.40;;;5.50;99.90;;;;;;5131951;27;20035;-69
2022/09/29 05:22:39;;;;;;;;;;;5.50;99.90;;;;;;5133425;27;20580;-70
2022/09/29 05:25:07;;;;;;;117.65;8.07;;;5.60;99.90;;;;;;5122906;27;20018;-68
2022/09/29 05:27:34;;;;;;;96.10;8.90;;;5.30;99.90;;;;;;5095512;28;20121;-68
2022/09/29 05:30:00;;;;;;;92.28;9.43;;;5.30;99.90;;;;;;5094899;28;20364;-68
2022/09/29 05:32:25;;;;;;;127.28;11.88;;;5.20;99.90;;;;;;5112675;28;20044;-68
2022/09/29 05:34:51;;;;;;;146.63;8.52;;;5.20;99.90;;;;;;5111580;28;20490;-68
2022/09/29 05:37:17;;;;;;;53.50;7.03;;;5.20;99.90;;;;;;5105695;27;20319;-68
2022/09/29 05:39:43;;;;;;;115.78;8.70;;;5.10;99.90;;;;;;5124784;27;20042;-68
2022/09/29 05:42:10;;;;;;;39.40;6.72;;;5.10;99.90;;;;;;5120309;27;20392;-68
2022/09/29 05:44:36;;;;;;;178.15;11.35;;;5.00;99.90;;;;;;5128303;27;20051;-70
2022/09/29 05:47:02;;;;;;;78.47;7.90;;;4.90;99.90;;;;;;5124604;27;20043;-67
2022/09/29 05:49:30;;;;;;;108.82;8.45;;;4.80;99.90;;;;;;5132902;27;20147;-68
2022/09/29 05:51:56;;;;;;;130.45;8.55;;;4.80;99.90;;;;;;5133351;27;20042;-68
2022/09/29 05:54:22;;;;;;;21.02;6.15;;;4.90;99.90;;;;;;5133923;27;20441;-68
2022/09/29 05:56:48;;;;;;;44.78;6.47;;;4.90;99.90;;;;;;5118970;27;20051;-68
2022/09/29 05:59:14;;;;;;;43.33;7.22;;;5.00;99.90;;;;;;5117348;27;20039;-68
2022/09/29 06:01:40;;;;;;;34.95;6.75;;;4.90;99.90;;;;;;5114004;27;20039;-70
2022/09/29 06:04:06;;;;;;;36.03;6.40;;;4.90;99.90;;;;;;5132984;27;20445;-68
2022/09/29 06:06:31;;;;;;;33.38;6.70;;;5.00;99.90;;;;;;5120339;27;20495;-69
2022/09/29 06:08:59;;;;;;;32.72;5.95;;;5.00;99.90;;;;;;5112760;27;20502;-68
2022/09/29 06:11:27;;;;;;;93.38;7.63;;;5.10;99.90;;;;;;5120402;27;20130;-68
2022/09/29 06:13:54;;;;;;;25.73;7.07;;;5.10;99.90;;;;;;5114260;27;20443;-68
2022/09/29 06:16:23;;;;;;;44.58;7.85;;;5.20;99.90;;;;;;5132056;27;20082;-69
2022/09/29 06:18:49;;;;;;;48.85;6.30;;;5.20;99.90;;;;;;5131707;27;20557;-68
2022/09/29 06:21:17;;;;;;;;;;;5.30;99.90;;;;;;5133213;27;20476;-68
2022/09/29 06:23:43;;;;;;;36.30;6.75;;;5.30;99.90;;;;;;5100418;28;20310;-70
2022/09/29 06:26:10;;;;;;;;;;;5.30;99.90;;;;;;5094570;28;20043;-68
2022/09/29 06:28:36;;;;;;;28.08;5.80;;;5.40;99.90;;;;;;5113048;28;19920;-71
2022/09/29 06:31:05;;;;;;;26.65;6.03;;;5.40;99.90;;;;;;5130499;27;20043;-71
2022/09/29 06:33:32;;;;;;;20.50;6.72;;;5.50;99.90;;;;;;5123294;27;20079;-70
2022/09/29 06:38:46;;;;;;;25.60;5.87;;;5.50;99.90;;;;;;5132600;27;20055;-73
2022/09/29 06:41:12;;;;;;;41.40;7.05;;;5.60;99.90;;;;;;5114466;27;20122;-71
2022/09/29 06:43:38;;;;;;;35.13;7.25;;;5.60;99.90;;;;;;5132785;27;20088;-72
2022/09/29 06:46:04;;;;;;;25.67;6.15;;;5.60;99.90;;;;;;5130788;27;20047;-69
2022/09/29 06:48:30;;;;;;;28.88;6.18;;;5.60;99.90;;;;;;5132111;27;20039;-68
2022/09/29 06:50:56;;;;;;;25.20;6.70;;;5.60;99.90;;;;;;5131567;27;20429;-68
2022/09/29 06:53:22;;;;;;;26.75;6.63;;;5.70;99.90;;;;;;5132746;27;20039;-68
2022/09/29 06:55:55;;;;;;;;;;;5.70;99.90;;;;;;5117057;27;20042;-71
2022/09/29 06:58:22;;;;;;;32.10;7.28;;;5.70;99.90;;;;;;5111733;27;19938;-69
2022/09/29 07:00:47;;;;;;;50.22;7.47;;;5.80;99.90;;;;;;5111278;28;20357;-71
2022/09/29 07:03:13;;;;;;;83.30;8.60;;;5.90;99.90;;;;;;5110316;28;20054;-69
2022/09/29 07:05:39;;;;;;;30.27;7.70;;;5.80;99.90;;;;;;5111459;28;20047;-69
2022/09/29 07:08:05;;;;;;;44.38;7.70;;;5.90;99.90;;;;;;5111103;28;20050;-69
2022/09/29 07:10:31;;;;;;;44.60;8.85;;;5.90;99.90;;;;;;5093777;28;20070;-68
2022/09/29 07:12:57;;;;;;;28.63;6.93;;;5.90;99.90;;;;;;5110959;28;20127;-70
2022/09/29 07:15:30;;;;;;;53.72;7.80;;;6.00;99.90;;;;;;5115129;27;20042;-69
2022/09/29 07:17:57;;;;;;;30.33;8.13;;;6.00;99.90;;;;;;5098668;28;20123;-68
2022/09/29 07:20:24;;;;;;;28.23;7.22;;;6.10;99.90;;;;;;5120888;27;20070;-69
2022/09/29 07:22:49;;;;;;;109.70;9.55;;;6.10;99.90;;;;;;5131410;27;20081;-71
2022/09/29 07:25:15;;;;;;;44.78;8.45;;;6.20;99.90;;;;;;5131586;27;20074;-69
2022/09/29 07:27:41;;;;;;;50.72;7.70;;;6.20;99.90;;;;;;5131323;27;20035;-68
2022/09/29 07:30:08;;;;;;;99.28;11.07;;;6.30;99.90;;;;;;5095829;27;20047;-69
2022/09/29 07:32:33;;;;;;;116.13;10.70;;;6.30;99.90;;;;;;5130798;27;20370;-68
2022/09/29 07:34:59;;;;;;;60.45;8.40;;;6.30;99.90;;;;;;5130949;27;20050;-68
2022/09/29 07:37:26;;;;;;;56.30;9.40;;;6.30;99.90;;;;;;5142875;27;20061;-68
2022/09/29 07:39:52;;;;;;;56.70;8.32;;;6.30;99.90;;;;;;5122259;27;20438;-70
2022/09/29 07:42:20;;;;;;;48.72;8.90;;;6.30;99.90;;;;;;5142324;27;20035;-68
2022/09/29 07:44:46;;;;;;;55.42;7.90;;;6.40;99.90;;;;;;5142015;27;20534;-71
2022/09/29 07:47:12;;;;;;;51.65;7.57;;;6.50;99.90;;;;;;5123780;27;20043;-70
2022/09/29 07:49:39;;;;;;;40.80;7.35;;;6.60;99.90;;;;;;5129296;27;20035;-69
2022/09/29 07:52:05;;;;;;;45.97;9.23;;;6.70;99.90;;;;;;5143588;27;20039;-69
2022/09/29 07:54:31;;;;;;;29.73;7.60;;;6.80;99.90;;;;;;5126942;27;20388;-70
2022/09/29 07:56:59;;;;;;;35.00;7.32;;;6.90;99.90;;;;;;5130506;27;20131;-69
2022/09/29 07:59:26;;;;;;;43.88;7.07;;;7.00;99.90;;;;;;5129649;27;20063;-69
2022/09/29 08:01:52;;;;;;;36.20;7.63;;;7.10;99.90;;;;;;5138075;27;20050;-72
2022/09/29 08:04:18;;;;;;;16.40;6.72;;;7.20;99.90;;;;;;5142193;27;20034;-69
2022/09/29 08:06:45;;;;;;;24.70;7.72;;;7.30;99.90;;;;;;5132231;27;20668;-70
2022/09/29 08:09:11;;;;;;;15.43;6.57;;;7.30;99.90;;;;;;5108573;27;20487;-68
2022/09/29 08:11:38;;;;;;;;;;;7.40;99.90;;;;;;5145689;27;20080;-69
2022/09/29 08:14:04;;;;;;;140.50;36.35;;;7.60;99.90;;;;;;5124397;27;20013;-71
2022/09/29 08:16:30;;;;;;;;;;;7.70;99.90;;;;;;5115660;28;20039;-69
2022/09/29 08:18:55;;;;;;;65.93;15.10;;;7.70;99.90;;;;;;5100820;28;20068;-73
2022/09/29 08:21:21;;;;;;;36.67;9.38;;;7.70;99.90;;;;;;5128563;27;20050;-73
2022/09/29 08:23:47;;;;;;;65.95;19.42;;;7.80;99.90;;;;;;5130876;28;20038;-73
2022/09/29 08:26:16;;;;;;;32.08;11.80;;;7.90;99.90;;;;;;5129985;28;20052;-69
2022/09/29 08:28:42;;;;;;;25.23;8.98;;;7.80;99.90;;;;;;5130959;28;20047;-69
2022/09/29 08:31:13;;;;;;;15.95;7.47;;;8.10;99.90;;;;;;5120080;27;20051;-72
2022/09/29 08:33:39;;;;;;;14.30;6.85;;;8.10;99.90;;;;;;5134450;27;20048;-69
2022/09/29 08:36:13;;;;;;;12.82;7.07;;;8.30;99.90;;;;;;5129806;28;20039;-70
2022/09/29 08:38:43;;;;;;;15.77;7.03;;;8.30;99.90;;;;;;5128620;28;20400;-70
2022/09/29 08:41:27;;;;;;;11.82;6.65;;;8.50;99.90;;;;;;5120539;28;20040;-70
2022/09/29 08:44:24;;;;;;;12.07;6.47;;;8.50;99.90;;;;;;5128522;28;20118;-70
2022/09/29 08:46:56;;;;;;;12.85;6.53;;;8.60;99.90;;;;;;5090233;28;20052;-70
2022/09/29 08:49:28;;;;;;;14.18;6.72;;;8.60;99.90;;;;;;5129669;28;20040;-71
2022/09/29 08:51:58;;;;;;;12.98;7.13;;;8.70;99.90;;;;;;5131093;28;20047;-69
2022/09/29 08:54:32;;;;;;;13.88;7.13;;;8.70;99.90;;;;;;5131083;27;20054;-69
2022/09/29 08:56:59;;;;;;;11.23;6.80;;;8.90;99.90;;;;;;5134245;27;20047;-71
2022/09/29 08:59:27;;;;;;;11.73;6.93;;;9.00;99.90;;;;;;5098692;27;20047;-70
2022/09/29 09:02:06;;;;;;;13.93;7.10;;;9.10;99.90;;;;;;5133544;27;20039;-69
2022/09/29 09:04:44;;;;;;;14.82;7.38;;;9.20;99.90;;;;;;5114254;27;20095;-71
2022/09/29 09:07:30;;;;;;;14.43;7.53;;;9.40;99.90;;;;;;5133888;27;20043;-69
2022/09/29 09:10:05;;;;;;;12.40;7.05;;;9.50;99.90;;;;;;5120832;27;20035;-70
2022/09/29 09:12:37;;;;;;;10.27;5.78;;;9.60;99.90;;;;;;5134271;27;20043;-69
2022/09/29 09:15:02;;;;;;;11.77;6.72;;;9.70;99.90;;;;;;5119948;27;20035;-72
2022/09/29 09:17:51;;;;;;;9.15;5.38;;;9.70;99.90;;;;;;5132987;27;20069;-69
2022/09/29 09:20:25;;;;;;;11.55;6.20;;;9.70;99.90;;;;;;5119383;27;20042;-69
2022/09/29 09:23:20;;;;;;;13.02;6.35;;;9.70;99.90;;;;;;5147745;27;20059;-68
2022/09/29 09:25:56;;;;;;;11.52;6.25;;;9.70;99.90;;;;;;5121452;27;20464;-72
2022/09/29 09:28:28;;;;;;;;;;;9.70;99.90;;;;;;5139579;27;20085;-68
2022/09/29 09:31:02;;;;;;;12.98;6.00;;;9.80;99.90;;;;;;5142977;27;20276;-69
2022/09/29 09:33:41;;;;;;;10.23;5.70;;;9.80;99.90;;;;;;5105908;27;20048;-69
2022/09/29 09:36:34;;;;;;;10.80;5.60;;;9.90;99.90;;;;;;5111184;27;20039;-72
2022/09/29 09:39:22;;;;;;;12.07;5.72;;;10.00;99.90;;;;;;5112921;28;20036;-78
2022/09/29 09:41:51;;;;;;;11.90;6.22;;;10.00;99.90;;;;;;5111845;28;20450;-70
2022/09/29 09:44:25;;;;;;;10.98;6.53;;;10.10;99.90;;;;;;5126475;27;20050;-77
2022/09/29 09:46:59;;;;;;;14.07;6.72;;;10.10;99.90;;;;;;5113768;27;20079;-71
2022/09/29 09:49:31;;;;;;;11.65;6.95;;;10.10;99.90;;;;;;5114531;27;20048;-72
2022/09/29 09:52:16;;;;;;;11.23;6.47;;;10.20;99.90;;;;;;5104621;28;20040;-69
2022/09/29 09:54:46;;;;;;;14.35;7.40;;;10.30;99.90;;;;;;5114081;27;20527;-70
2022/09/29 09:57:23;;;;;;;10.93;5.45;;;10.40;99.90;;;;;;5115346;27;20047;-71
2022/09/29 10:00:08;;;;;;;12.35;6.47;;;10.50;99.90;;;;;;5115719;27;20042;-70
2022/09/29 10:02:35;;;;;;;12.85;6.65;;;10.60;99.90;;;;;;5116841;27;20073;-71
2022/09/29 10:05:01;;;;;;;12.63;6.60;;;10.70;99.90;;;;;;5111543;28;20043;-70
2022/09/29 10:07:29;;;;;;;14.40;7.75;;;10.70;99.90;;;;;;5111255;28;20040;-69
2022/09/29 10:09:56;;;;;;;12.10;6.53;;;10.80;99.90;;;;;;5111374;28;20041;-70
2022/09/29 10:12:23;;;;;;;13.43;7.47;;;10.80;99.90;;;;;;5110940;28;20555;-70
2022/09/29 10:15:02;;;;;;;11.18;6.63;;;10.90;99.90;;;;;;5118917;27;20088;-71
2022/09/29 10:17:34;;;;;;;12.80;6.82;;;10.90;99.90;;;;;;5108272;27;20074;-69
2022/09/29 10:20:04;;;;;;;15.52;7.82;;;11.00;99.90;;;;;;5111457;28;20039;-69
2022/09/29 10:22:31;;;;;;;13.48;7.03;;;11.20;99.90;;;;;;5116822;27;20081;-67
2022/09/29 10:25:17;;;;;;;13.82;7.43;;;11.40;99.90;;;;;;5121714;27;20040;-66
2022/09/29 10:27:47;;;;;;;11.25;6.25;;;11.50;99.90;;;;;;5111950;28;20079;-70
2022/09/29 10:30:21;;;;;;;10.52;6.20;;;11.60;99.90;;;;;;5110189;28;20035;-70
2022/09/29 10:32:47;;;;;;;12.80;6.32;;;11.70;99.90;;;;;;5131373;27;20053;-68
2022/09/29 10:35:15;;;;;;;10.77;5.78;;;12.00;99.90;;;;;;5144703;27;20054;-66
2022/09/29 10:37:45;;;;;;;10.90;6.30;;;12.00;99.90;;;;;;5117858;27;20051;-63
2022/09/29 10:40:20;;;;;;;11.30;6.00;;;12.20;99.90;;;;;;5128400;27;20134;-65
2022/09/29 10:42:48;;;;;;;8.98;5.15;;;12.30;99.90;;;;;;5132651;27;20041;-65
2022/09/29 10:45:28;;;;;;;8.95;5.32;;;12.50;99.90;;;;;;5137618;27;20470;-68
2022/09/29 10:47:57;;;;;;;11.82;6.35;;;12.60;99.90;;;;;;5152415;27;20039;-72
2022/09/29 10:50:26;;;;;;;12.95;5.97;;;12.80;99.90;;;;;;5133412;27;20503;-68
2022/09/29 10:52:55;;;;;;;10.85;5.78;;;12.90;99.90;;;;;;5153257;27;20722;-69
2022/09/29 10:55:26;;;;;;;10.85;6.03;;;13.00;99.90;;;;;;5152737;27;20429;-68
2022/09/29 10:57:55;;;;;;;10.13;5.55;;;13.00;99.90;;;;;;5141081;27;20126;-65
2022/09/29 11:00:44;;;;;;;9.85;5.47;;;13.10;99.90;;;;;;5110941;28;20032;-67
2022/09/29 11:03:21;;;;;;;9.38;5.32;;;13.30;99.90;;;;;;5092144;28;20101;-70
2022/09/29 11:06:10;;;;;;;10.05;5.43;;;13.60;99.90;;;;;;5111471;28;20042;-67
2022/09/29 11:08:54;;;;;;;8.95;4.70;;;13.80;99.90;;;;;;5111991;28;20043;-62
2022/09/29 11:11:25;;;;;;;9.43;4.38;;;14.10;99.90;;;;;;5110542;28;20511;-66
2022/09/29 11:13:52;;;;;;;8.07;4.63;;;14.50;99.90;;;;;;5114164;27;20035;-65
2022/09/29 11:16:30;;;;;;;7.63;4.00;;;14.90;99.90;;;;;;5129884;27;20124;-64
2022/09/29 11:19:04;;;;;;;11.75;4.72;;;15.40;99.90;;;;;;5124298;27;20572;-65
2022/09/29 11:22:00;;;;;;;8.95;4.70;;;15.90;99.90;;;;;;5110499;28;20078;-67
2022/09/29 11:24:51;;;;;;;7.35;3.42;;;16.50;99.90;;;;;;5111094;28;20131;-66
2022/09/29 11:27:28;;;;;;;5.75;3.20;;;17.10;99.90;;;;;;5110572;28;20043;-66
2022/09/29 11:30:20;;;;;;;6.72;3.60;;;17.50;99.90;;;;;;5111360;28;20416;-67
2022/09/29 11:32:51;;;;;;;6.28;3.28;;;18.10;99.90;;;;;;5110476;28;20483;-67
2022/09/29 11:35:43;;;;;;;8.13;4.28;;;18.60;99.90;;;;;;5109607;28;20132;-67
2022/09/29 11:38:35;;;;;;;5.85;3.20;;;18.90;99.90;;;;;;5123544;27;20042;-68
2022/09/29 11:41:12;;;;;;;6.47;3.65;;;19.30;99.90;;;;;;5131645;27;20082;-67
2022/09/29 11:43:53;;;;;;;5.88;3.63;;;19.70;99.90;;;;;;5133246;27;20051;-66
2022/09/29 11:46:51;;;;;;;6.43;3.92;;;19.80;99.90;;;;;;5124671;27;20050;-63
2022/09/29 11:49:41;;;;;;;6.47;3.67;;;20.00;99.90;;;;;;5130672;27;20384;-67
2022/09/29 11:52:21;;;;;;;7.15;3.33;;;20.50;99.90;;;;;;5131742;27;20046;-68
2022/09/29 11:55:05;;;;;;;7.05;3.33;;;21.00;99.90;;;;;;5131663;27;20047;-67
2022/09/29 11:58:03;;;;;;;7.43;3.33;;;21.40;99.90;;;;;;5112689;28;20059;-66
2022/09/29 12:01:02;;;;;;;7.30;3.42;;;21.90;83.10;;;;;;5127032;27;20055;-69
2022/09/29 12:03:59;;;;;;;6.57;3.30;;;22.20;93.70;;;;;;5138612;27;20082;-65
2022/09/29 12:06:50;;;;;;;6.57;4.00;;;22.20;90.70;;;;;;5130115;27;20065;-66
2022/09/29 12:09:18;;;;;;;5.57;3.45;;;22.20;84.90;;;;;;5131269;28;20376;-72
2022/09/29 12:12:17;;;;;;;5.53;3.40;;;22.10;92.70;;;;;;5112959;28;20043;-68
2022/09/29 12:14:58;;;;;;;5.75;2.65;;;22.20;83.00;;;;;;5110881;28;20090;-69
2022/09/29 12:17:30;;;;;;;7.20;3.20;;;22.40;83.70;;;;;;5113984;28;20408;-68
2022/09/29 12:20:24;;;;;;;6.10;3.53;;;22.50;84.80;;;;;;5130468;28;20047;-69
2022/09/29 12:22:53;;;;;;;6.50;3.05;;;22.70;76.10;;;;;;5131649;28;20078;-69
2022/09/29 12:25:24;;;;;;;4.85;2.92;;;22.70;80.80;;;;;;5130491;27;20118;-66
2022/09/29 12:27:54;;;;;;;6.38;3.22;;;23.00;79.70;;;;;;5131277;28;20051;-62
2022/09/29 12:30:42;;;;;;;7.15;3.80;;;23.30;77.50;;;;;;5114293;27;20042;-62
2022/09/29 12:33:22;;;;;;;7.85;3.78;;;23.50;74.40;;;;;;5129771;27;20521;-66
2022/09/29 12:35:58;;;;;;;5.38;3.28;;;23.50;72.30;;;;;;5114391;28;20047;-66
2022/09/29 12:38:35;;;;;;;7.13;3.65;;;23.40;74.70;;;;;;5114205;28;20130;-66
2022/09/29 12:41:12;;;;;;;6.13;3.38;;;23.10;72.00;;;;;;5114406;28;20414;-70
2022/09/29 12:44:05;;;;;;;7.90;3.15;;;23.20;68.70;;;;;;5114175;28;20036;-71
2022/09/29 12:46:40;;;;;;;3.88;2.47;;;23.40;66.70;;;;;;5116614;27;20484;-68
2022/09/29 12:49:17;;;;;;;6.55;3.55;;;23.50;69.70;;;;;;5134913;27;20080;-67
2022/09/29 12:51:49;;;;;;;7.38;4.15;;;23.50;65.60;;;;;;5134388;27;20053;-68
2022/09/29 12:54:22;;;;;;;6.78;3.70;;;23.50;68.30;;;;;;5134878;27;20547;-67
2022/09/29 12:57:16;;;;;;;5.30;3.40;;;23.70;66.50;;;;;;5132138;27;20140;-67
2022/09/29 13:00:08;;;;;;;7.93;3.30;;;24.00;61.80;;;;;;5122384;27;20366;-66
2022/09/29 13:02:55;;;;;;;5.53;2.75;;;24.20;63.10;;;;;;5112892;28;20368;-67
2022/09/29 13:05:24;;;;;;;7.00;3.00;;;24.20;59.90;;;;;;5112941;28;20142;-70
2022/09/29 13:08:03;;;;;;;4.05;2.60;;;24.30;65.70;;;;;;5114053;28;20046;-66
2022/09/29 13:10:41;;;;;;;6.10;3.20;;;24.20;63.30;;;;;;5112318;28;20093;-66
2022/09/29 13:13:37;;;;;;;3.90;1.95;;;24.20;63.20;;;;;;5113715;28;20047;-67
2022/09/29 13:16:22;;;;;;;4.18;1.92;;;24.10;57.30;;;;;;5116988;27;20118;-66